createdAt,value
2019-01-02T00:00:24.936Z,1013.94
2019-01-02T00:01:24.996Z,1013.96
2019-01-02T00:02:24.915Z,1013.78
2019-01-02T00:03:25.188Z,1013.86
2019-01-02T00:04:24.893Z,1013.89
2019-01-02T00:05:24.883Z,1013.91
2019-01-02T00:06:24.873Z,1013.92
2019-01-02T00:07:25.495Z,1013.94
2019-01-02T00:08:24.857Z,1013.92
2019-01-02T00:09:24.847Z,1013.90
2019-01-02T00:10:25.115Z,1013.96
2019-01-02T00:11:24.820Z,1013.93
2019-01-02T00:12:24.810Z,1013.94
2019-01-02T00:13:24.893Z,1013.92
2019-01-02T00:14:24.790Z,1013.87
2019-01-02T00:15:24.781Z,1013.95
2019-01-02T00:16:24.770Z,1013.85
2019-01-02T00:17:25.039Z,1013.98
2019-01-02T00:18:25.497Z,1013.95
2019-01-02T00:19:24.829Z,1013.95
2019-01-02T00:20:24.729Z,1013.91
2019-01-02T00:21:25.497Z,1013.97
2019-01-02T00:22:24.718Z,1013.98
2019-01-02T00:23:24.702Z,1014.03
2019-01-02T00:24:24.986Z,1014.00
2019-01-02T00:25:24.747Z,1014.04
2019-01-02T00:26:24.666Z,1014.08
2019-01-02T00:27:24.655Z,1014.08
2019-01-02T00:28:24.649Z,1014.13
2019-01-02T00:29:24.651Z,1014.13
2019-01-02T00:30:24.708Z,1014.15
2019-01-02T00:31:24.718Z,1014.14
2019-01-02T00:32:24.606Z,1014.16
2019-01-02T00:33:24.594Z,1014.18
2019-01-02T00:34:24.634Z,1014.24
2019-01-02T00:35:24.579Z,1014.15
2019-01-02T00:36:24.644Z,1014.16
2019-01-02T00:37:25.016Z,1014.18
2019-01-02T00:38:24.545Z,1014.23
2019-01-02T00:39:24.539Z,1014.18
2019-01-02T00:40:24.522Z,1014.25
2019-01-02T00:41:24.521Z,1014.28
2019-01-02T00:42:24.505Z,1014.31
2019-01-02T00:43:24.564Z,1014.27
2019-01-02T00:44:24.765Z,1014.27
2019-01-02T00:45:24.472Z,1014.26
2019-01-02T00:46:24.463Z,1014.35
2019-01-02T00:47:24.452Z,1014.40
2019-01-02T00:48:24.439Z,1014.49
2019-01-02T00:49:25.452Z,1014.47
2019-01-02T00:50:24.420Z,1014.55
2019-01-02T00:51:24.720Z,1014.54
2019-01-02T00:52:24.398Z,1014.57
2019-01-02T00:53:24.388Z,1014.61
2019-01-02T00:54:24.382Z,1014.57
2019-01-02T00:55:24.439Z,1014.57
2019-01-02T00:56:24.359Z,1014.61
2019-01-02T00:57:24.349Z,1014.56
2019-01-02T00:58:24.617Z,1014.50
2019-01-02T00:59:24.326Z,1014.48
2019-01-02T01:00:24.317Z,1014.44
2019-01-02T01:01:24.373Z,1014.40
2019-01-02T01:02:24.297Z,1014.36
2019-01-02T01:03:24.286Z,1014.38
2019-01-02T01:04:24.275Z,1014.41
2019-01-02T01:05:24.543Z,1014.37
2019-01-02T01:06:24.259Z,1014.40
2019-01-02T01:07:24.321Z,1014.49
2019-01-02T01:08:24.234Z,1014.43
2019-01-02T01:09:24.223Z,1014.58
2019-01-02T01:10:24.212Z,1014.64
2019-01-02T01:11:24.204Z,1014.56
2019-01-02T01:12:24.505Z,1014.55
2019-01-02T01:13:24.256Z,1014.52
2019-01-02T01:14:24.172Z,1014.51
2019-01-02T01:15:24.162Z,1014.53
2019-01-02T01:16:24.154Z,1014.49
2019-01-02T01:17:24.141Z,1014.47
2019-01-02T01:18:24.133Z,1014.42
2019-01-02T01:19:24.490Z,1014.47
2019-01-02T01:20:24.109Z,1014.43
2019-01-02T01:21:24.100Z,1014.38
2019-01-02T01:22:24.089Z,1014.40
2019-01-02T01:23:24.079Z,1014.40
2019-01-02T01:24:24.080Z,1014.38
2019-01-02T01:25:24.154Z,1014.43
2019-01-02T01:26:24.339Z,1014.45
2019-01-02T01:27:24.042Z,1014.51
2019-01-02T01:28:24.028Z,1014.49
2019-01-02T01:29:24.019Z,1014.51
2019-01-02T01:30:24.008Z,1014.45
2019-01-02T01:31:24.066Z,1014.48
2019-01-02T01:32:23.988Z,1014.46
2019-01-02T01:33:24.256Z,1014.46
2019-01-02T01:34:23.965Z,1014.51
2019-01-02T01:35:23.956Z,1014.53
2019-01-02T01:36:23.945Z,1014.49
2019-01-02T01:37:24.007Z,1014.52
2019-01-02T01:38:23.925Z,1014.54
2019-01-02T01:39:23.914Z,1014.56
2019-01-02T01:40:24.211Z,1014.44
2019-01-02T01:41:23.894Z,1014.46
2019-01-02T01:42:23.884Z,1014.41
2019-01-02T01:43:23.960Z,1014.37
2019-01-02T01:44:24.440Z,1014.35
2019-01-02T01:45:23.854Z,1014.37
2019-01-02T01:46:23.842Z,1014.37
2019-01-02T01:47:24.111Z,1014.41
2019-01-02T01:48:23.822Z,1014.38
2019-01-02T01:49:23.889Z,1014.40
2019-01-02T01:50:23.801Z,1014.37
2019-01-02T01:51:23.791Z,1014.37
2019-01-02T01:52:23.782Z,1014.43
2019-01-02T01:53:23.771Z,1014.40
2019-01-02T01:54:24.048Z,1014.49
2019-01-02T01:55:23.822Z,1014.56
2019-01-02T01:56:23.739Z,1014.63
2019-01-02T01:57:23.730Z,1014.73
2019-01-02T01:58:23.723Z,1014.56
2019-01-02T01:59:23.708Z,1014.75
2019-01-02T02:00:23.700Z,1014.84
2019-01-02T02:01:23.872Z,1014.80
2019-01-02T02:02:23.678Z,1014.85
2019-01-02T02:03:23.670Z,1014.78
2019-01-02T02:04:23.658Z,1014.93
2019-01-02T02:05:23.647Z,1014.82
2019-01-02T02:06:23.641Z,1014.84
2019-01-02T02:07:23.985Z,1014.92
2019-01-02T02:08:23.618Z,1014.85
2019-01-02T02:09:23.605Z,1014.87
2019-01-02T02:10:23.599Z,1014.89
2019-01-02T02:11:23.649Z,1014.95
2019-01-02T02:12:23.712Z,1014.92
2019-01-02T02:13:23.823Z,1014.92
2019-01-02T02:14:25.130Z,1014.87
2019-01-02T02:15:23.557Z,1014.78
2019-01-02T02:16:23.725Z,1014.79
2019-01-02T02:17:23.524Z,1014.83
2019-01-02T02:18:23.595Z,1014.85
2019-01-02T02:19:23.592Z,1014.84
2019-01-02T02:20:23.494Z,1014.77
2019-01-02T02:21:23.759Z,1014.87
2019-01-02T02:22:23.472Z,1014.84
2019-01-02T02:23:23.462Z,1014.87
2019-01-02T02:24:23.454Z,1014.81
2019-01-02T02:25:23.510Z,1014.91
2019-01-02T02:26:23.433Z,1014.97
2019-01-02T02:27:23.421Z,1015.04
2019-01-02T02:28:23.686Z,1015.05
2019-01-02T02:29:23.400Z,1015.14
2019-01-02T02:30:23.398Z,1015.15
2019-01-02T02:31:23.450Z,1015.16
2019-01-02T02:32:23.370Z,1015.22
2019-01-02T02:33:23.358Z,1015.26
2019-01-02T02:34:23.349Z,1015.26
2019-01-02T02:35:23.626Z,1015.18
2019-01-02T02:36:23.330Z,1015.20
2019-01-02T02:37:23.423Z,1015.23
2019-01-02T02:38:23.307Z,1015.36
2019-01-02T02:39:23.303Z,1015.37
2019-01-02T02:40:23.289Z,1015.36
2019-01-02T02:41:23.277Z,1015.32
2019-01-02T02:42:23.551Z,1015.38
2019-01-02T02:43:23.329Z,1015.29
2019-01-02T02:44:23.246Z,1015.37
2019-01-02T02:45:23.236Z,1015.35
2019-01-02T02:46:23.225Z,1015.40
2019-01-02T02:47:23.221Z,1015.41
2019-01-02T02:48:23.205Z,1015.42
2019-01-02T02:49:23.570Z,1015.48
2019-01-02T02:50:23.184Z,1015.41
2019-01-02T02:51:23.174Z,1015.37
2019-01-02T02:52:23.167Z,1015.34
2019-01-02T02:53:23.159Z,1015.30
2019-01-02T02:54:23.143Z,1015.35
2019-01-02T02:55:23.232Z,1015.35
2019-01-02T02:56:23.416Z,1015.32
2019-01-02T02:57:23.112Z,1015.33
2019-01-02T02:58:23.103Z,1015.39
2019-01-02T02:59:23.092Z,1015.34
2019-01-02T03:01:39.072Z,1015.37
2019-01-02T03:02:38.719Z,1015.42
2019-01-02T03:03:38.709Z,1015.46
2019-01-02T03:04:38.701Z,1015.49
2019-01-02T03:05:38.691Z,1015.41
2019-01-02T03:06:38.688Z,1015.40
2019-01-02T03:07:38.738Z,1015.38
2019-01-02T03:08:38.937Z,1015.40
2019-01-02T03:09:38.649Z,1015.45
2019-01-02T03:10:38.636Z,1015.41
2019-01-02T03:11:38.645Z,1015.47
2019-01-02T03:12:38.616Z,1015.51
2019-01-02T03:13:38.723Z,1015.54
2019-01-02T03:14:38.595Z,1015.55
2019-01-02T03:15:38.867Z,1015.64
2019-01-02T03:16:38.576Z,1015.65
2019-01-02T03:17:38.575Z,1015.67
2019-01-02T03:18:38.557Z,1015.66
2019-01-02T03:19:38.618Z,1015.65
2019-01-02T03:20:38.535Z,1015.68
2019-01-02T03:21:38.525Z,1015.63
2019-01-02T03:22:38.530Z,1015.65
2019-01-02T03:23:38.505Z,1015.72
2019-01-02T03:24:38.494Z,1015.66
2019-01-02T03:25:38.716Z,1015.64
2019-01-02T03:26:38.473Z,1015.73
2019-01-02T03:27:38.461Z,1015.75
2019-01-02T03:28:38.454Z,1015.73
2019-01-02T03:29:38.719Z,1015.75
2019-01-02T03:30:38.432Z,1015.74
2019-01-02T03:31:38.528Z,1015.73
2019-01-02T03:32:38.411Z,1015.72
2019-01-02T03:33:38.400Z,1015.69
2019-01-02T03:34:38.390Z,1015.73
2019-01-02T03:35:38.381Z,1015.75
2019-01-02T03:36:38.655Z,1015.74
2019-01-02T03:37:38.431Z,1015.76
2019-01-02T03:38:38.349Z,1015.74
2019-01-02T03:39:38.339Z,1015.74
2019-01-02T03:40:38.440Z,1015.74
2019-01-02T03:41:38.352Z,1015.75
2019-01-02T03:42:38.312Z,1015.77
2019-01-02T03:43:38.695Z,1015.83
2019-01-02T03:44:38.287Z,1015.79
2019-01-02T03:45:38.279Z,1015.83
2019-01-02T03:46:38.268Z,1015.85
2019-01-02T03:47:38.266Z,1015.87
2019-01-02T03:48:38.248Z,1015.87
2019-01-02T03:49:38.328Z,1015.88
2019-01-02T03:50:38.506Z,1015.86
2019-01-02T03:51:38.215Z,1015.90
2019-01-02T03:52:38.205Z,1015.93
2019-01-02T03:53:38.195Z,1015.95
2019-01-02T03:54:38.188Z,1015.97
2019-01-02T03:55:38.245Z,1015.95
2019-01-02T03:56:38.163Z,1015.98
2019-01-02T03:57:38.153Z,1015.98
2019-01-02T03:58:38.142Z,1015.96
2019-01-02T03:59:38.134Z,1015.97
2019-01-02T04:00:38.122Z,1016.03
2019-01-02T04:01:38.184Z,1016.02
2019-01-02T04:02:38.102Z,1016.01
2019-01-02T04:03:38.368Z,1016.02
2019-01-02T04:04:38.082Z,1016.07
2019-01-02T04:05:38.070Z,1016.04
2019-01-02T04:06:38.060Z,1016.06
2019-01-02T04:07:38.158Z,1016.05
2019-01-02T04:08:38.039Z,1016.07
2019-01-02T04:09:38.028Z,1016.03
2019-01-02T04:10:38.300Z,1016.01
2019-01-02T04:11:38.008Z,1016.01
2019-01-02T04:12:37.999Z,1016.04
2019-01-02T04:13:38.058Z,1015.97
2019-01-02T04:14:37.977Z,1016.03
2019-01-02T04:15:37.973Z,1016.00
2019-01-02T04:16:37.958Z,1015.97
2019-01-02T04:17:38.226Z,1016.01
2019-01-02T04:18:37.937Z,1015.98
2019-01-02T04:19:38.008Z,1015.99
2019-01-02T04:20:37.917Z,1016.04
2019-01-02T04:21:37.906Z,1016.02
2019-01-02T04:22:37.895Z,1016.08
2019-01-02T04:23:37.885Z,1016.02
2019-01-02T04:24:38.154Z,1016.06
2019-01-02T04:25:38.217Z,1016.07
2019-01-02T04:26:37.859Z,1016.05
2019-01-02T04:27:37.847Z,1016.13
2019-01-02T04:28:37.848Z,1016.14
2019-01-02T04:29:37.825Z,1016.08
2019-01-02T04:30:37.816Z,1016.10
2019-01-02T04:31:37.869Z,1016.06
2019-01-02T04:32:37.791Z,1016.04
2019-01-02T04:33:37.787Z,1016.10
2019-01-02T04:34:37.771Z,1016.09
2019-01-02T04:35:37.768Z,1016.12
2019-01-02T04:36:37.750Z,1016.12
2019-01-02T04:37:38.090Z,1016.18
2019-01-02T04:38:37.730Z,1016.14
2019-01-02T04:39:37.721Z,1016.15
2019-01-02T04:40:37.709Z,1016.10
2019-01-02T04:41:37.697Z,1016.07
2019-01-02T04:42:37.689Z,1016.07
2019-01-02T04:43:38.077Z,1016.11
2019-01-02T04:44:37.669Z,1016.12
2019-01-02T04:45:37.655Z,1016.11
2019-01-02T04:46:37.645Z,1016.14
2019-01-02T04:47:37.637Z,1016.12
2019-01-02T04:48:37.625Z,1016.13
2019-01-02T04:49:37.967Z,1016.08
2019-01-02T04:50:37.619Z,1016.11
2019-01-02T04:51:37.595Z,1016.11
2019-01-02T04:52:37.586Z,1016.12
2019-01-02T04:53:37.575Z,1016.12
2019-01-02T04:54:37.563Z,1016.11
2019-01-02T04:55:37.619Z,1016.09
2019-01-02T04:56:37.543Z,1016.13
2019-01-02T04:57:37.532Z,1016.12
2019-01-02T04:58:37.521Z,1016.16
2019-01-02T04:59:37.511Z,1016.16
2019-01-02T05:00:37.536Z,1016.16
2019-01-02T05:01:37.824Z,1016.16
2019-01-02T05:02:37.480Z,1016.11
2019-01-02T05:03:37.469Z,1016.18
2019-01-02T05:04:37.460Z,1016.22
2019-01-02T05:05:37.451Z,1016.30
2019-01-02T05:06:37.443Z,1016.28
2019-01-02T05:07:37.926Z,1016.32
2019-01-02T05:08:37.420Z,1016.29
2019-01-02T05:09:37.408Z,1016.30
2019-01-02T05:10:37.399Z,1016.32
2019-01-02T05:11:37.386Z,1016.29
2019-01-02T05:12:37.377Z,1016.30
2019-01-02T05:13:37.436Z,1016.32
2019-01-02T05:14:37.840Z,1016.31
2019-01-02T05:15:37.347Z,1016.30
2019-01-02T05:16:37.341Z,1016.31
2019-01-02T05:17:37.324Z,1016.29
2019-01-02T05:18:37.314Z,1016.32
2019-01-02T05:19:37.407Z,1016.34
2019-01-02T05:20:37.293Z,1016.38
2019-01-02T05:21:37.564Z,1016.42
2019-01-02T05:22:37.278Z,1016.42
2019-01-02T05:23:37.264Z,1016.41
2019-01-02T05:24:37.316Z,1016.41
2019-01-02T05:25:37.310Z,1016.42
2019-01-02T05:26:37.233Z,1016.43
2019-01-02T05:27:37.229Z,1016.47
2019-01-02T05:28:37.508Z,1016.53
2019-01-02T05:29:37.200Z,1016.49
2019-01-02T05:30:37.189Z,1016.53
2019-01-02T05:31:37.247Z,1016.53
2019-01-02T05:32:37.199Z,1016.58
2019-01-02T05:33:37.160Z,1016.53
2019-01-02T05:34:37.147Z,1016.57
2019-01-02T05:35:37.565Z,1016.58
2019-01-02T05:36:37.134Z,1016.58
2019-01-02T05:37:37.448Z,1016.61
2019-01-02T05:38:37.109Z,1016.60
2019-01-02T05:39:37.104Z,1016.66
2019-01-02T05:40:37.089Z,1016.66
2019-01-02T05:41:37.075Z,1016.68
2019-01-02T05:42:37.347Z,1016.76
2019-01-02T05:43:37.130Z,1016.77
2019-01-02T05:44:37.050Z,1016.77
2019-01-02T05:45:37.037Z,1016.78
2019-01-02T05:46:37.025Z,1016.79
2019-01-02T05:47:37.015Z,1016.84
2019-01-02T05:48:37.008Z,1016.81
2019-01-02T05:49:37.430Z,1016.84
2019-01-02T05:50:36.983Z,1016.75
2019-01-02T05:51:36.980Z,1016.80
2019-01-02T05:52:36.967Z,1016.71
2019-01-02T05:53:36.954Z,1016.78
2019-01-02T05:54:36.942Z,1016.74
2019-01-02T05:55:37.633Z,1016.81
2019-01-02T05:56:37.208Z,1016.76
2019-01-02T05:57:36.913Z,1016.82
2019-01-02T05:58:36.900Z,1016.84
2019-01-02T05:59:36.892Z,1016.84
2019-01-02T06:00:39.953Z,1016.85
2019-01-02T06:01:36.943Z,1016.86
2019-01-02T06:02:36.859Z,1016.88
2019-01-02T06:03:37.132Z,1016.85
2019-01-02T06:04:36.839Z,1016.85
2019-01-02T06:05:36.834Z,1016.84
2019-01-02T06:06:36.831Z,1016.82
2019-01-02T06:07:36.878Z,1016.88
2019-01-02T06:08:36.867Z,1016.85
2019-01-02T06:09:36.789Z,1016.88
2019-01-02T06:10:37.252Z,1016.85
2019-01-02T06:11:36.766Z,1016.87
2019-01-02T06:12:36.756Z,1016.88
2019-01-02T06:13:37.072Z,1016.90
2019-01-02T06:14:36.739Z,1016.90
2019-01-02T06:15:36.725Z,1016.93
2019-01-02T06:16:36.885Z,1016.88
2019-01-02T06:17:37.081Z,1016.87
2019-01-02T06:18:36.697Z,1016.90
2019-01-02T06:19:36.900Z,1016.94
2019-01-02T06:20:36.674Z,1016.94
2019-01-02T06:21:36.664Z,1016.92
2019-01-02T06:22:36.657Z,1016.92
2019-01-02T06:23:36.658Z,1016.93
2019-01-02T06:24:37.089Z,1016.93
2019-01-02T06:25:36.889Z,1016.96
2019-01-02T06:26:36.612Z,1016.90
2019-01-02T06:27:36.603Z,1016.85
2019-01-02T06:28:36.595Z,1016.89
2019-01-02T06:29:36.582Z,1016.89
2019-01-02T06:30:36.571Z,1016.94
2019-01-02T06:31:36.649Z,1016.95
2019-01-02T06:32:36.552Z,1016.96
2019-01-02T06:33:36.574Z,1016.92
2019-01-02T06:34:36.530Z,1016.97
2019-01-02T06:35:36.520Z,1016.92
2019-01-02T06:36:36.510Z,1017.00
2019-01-02T06:37:36.937Z,1016.96
2019-01-02T06:38:36.489Z,1017.02
2019-01-02T06:39:36.479Z,1017.00
2019-01-02T06:40:36.474Z,1017.05
2019-01-02T06:41:36.461Z,1017.11
2019-01-02T06:42:36.450Z,1017.04
2019-01-02T06:43:36.815Z,1017.07
2019-01-02T06:44:36.428Z,1017.11
2019-01-02T06:45:36.472Z,1017.15
2019-01-02T06:46:36.439Z,1017.12
2019-01-02T06:47:36.422Z,1017.12
2019-01-02T06:48:36.508Z,1017.16
2019-01-02T06:49:37.322Z,1017.14
2019-01-02T06:50:36.523Z,1017.20
2019-01-02T06:51:36.402Z,1017.16
2019-01-02T06:52:36.424Z,1017.22
2019-01-02T06:53:36.410Z,1017.21
2019-01-02T06:54:36.422Z,1017.22
2019-01-02T06:55:36.410Z,1017.21
2019-01-02T06:56:36.302Z,1017.21
2019-01-02T06:57:36.356Z,1017.27
2019-01-02T06:58:36.283Z,1017.32
2019-01-02T06:59:36.274Z,1017.33
2019-01-02T07:00:36.278Z,1017.35
2019-01-02T07:01:36.452Z,1017.34
2019-01-02T07:02:36.241Z,1017.37
2019-01-02T07:03:36.240Z,1017.40
2019-01-02T07:04:36.223Z,1017.45
2019-01-02T07:05:36.212Z,1017.43
2019-01-02T07:06:36.201Z,1017.46
2019-01-02T07:07:36.983Z,1017.41
2019-01-02T07:08:36.278Z,1017.40
2019-01-02T07:09:36.304Z,1017.42
2019-01-02T07:10:36.218Z,1017.50
2019-01-02T07:11:36.269Z,1017.54
2019-01-02T07:12:36.141Z,1017.55
2019-01-02T07:13:36.245Z,1017.55
2019-01-02T07:14:36.449Z,1017.61
2019-01-02T07:15:36.107Z,1017.62
2019-01-02T07:16:39.164Z,1017.65
2019-01-02T07:17:36.306Z,1017.66
2019-01-02T07:18:36.200Z,1017.74
2019-01-02T07:19:36.513Z,1017.75
2019-01-02T07:20:36.241Z,1017.74
2019-01-02T07:21:36.461Z,1017.83
2019-01-02T07:22:36.035Z,1017.84
2019-01-02T07:23:36.024Z,1017.90
2019-01-02T07:24:36.013Z,1017.87
2019-01-02T07:25:36.070Z,1017.94
2019-01-02T07:26:35.993Z,1017.97
2019-01-02T07:27:36.929Z,1017.99
2019-01-02T07:28:36.280Z,1017.97
2019-01-02T07:29:35.963Z,1018.04
2019-01-02T07:30:35.951Z,1018.02
2019-01-02T07:31:36.004Z,1018.10
2019-01-02T07:32:36.939Z,1018.11
2019-01-02T07:33:35.940Z,1018.13
2019-01-02T07:34:35.911Z,1018.16
2019-01-02T07:35:36.372Z,1018.18
2019-01-02T07:36:35.900Z,1018.17
2019-01-02T07:37:35.920Z,1018.17
2019-01-02T07:38:35.983Z,1018.24
2019-01-02T07:39:35.860Z,1018.24
2019-01-02T07:40:35.849Z,1018.24
2019-01-02T07:41:35.851Z,1018.26
2019-01-02T07:42:36.244Z,1018.29
2019-01-02T07:43:36.593Z,1018.36
2019-01-02T07:44:35.811Z,1018.46
2019-01-02T07:45:35.930Z,1018.37
2019-01-02T07:46:37.513Z,1018.37
2019-01-02T07:47:36.310Z,1018.44
2019-01-02T07:48:35.773Z,1018.41
2019-01-02T07:49:36.234Z,1018.47
2019-01-02T07:50:35.804Z,1018.52
2019-01-02T07:51:35.735Z,1018.48
2019-01-02T07:52:35.737Z,1018.48
2019-01-02T07:53:35.718Z,1018.55
2019-01-02T07:54:35.705Z,1018.52
2019-01-02T07:55:35.735Z,1018.53
2019-01-02T07:56:36.164Z,1018.53
2019-01-02T07:57:35.904Z,1018.60
2019-01-02T07:58:35.732Z,1018.58
2019-01-02T07:59:35.655Z,1018.67
2019-01-02T08:00:35.642Z,1018.64
2019-01-02T08:01:35.681Z,1018.56
2019-01-02T08:02:35.641Z,1018.64
2019-01-02T08:03:35.980Z,1018.65
2019-01-02T08:04:35.600Z,1018.68
2019-01-02T08:05:35.591Z,1018.71
2019-01-02T08:06:35.581Z,1018.73
2019-01-02T08:07:35.611Z,1018.76
2019-01-02T08:08:35.563Z,1018.80
2019-01-02T08:09:35.716Z,1018.83
2019-01-02T08:10:37.024Z,1018.81
2019-01-02T08:11:35.528Z,1018.82
2019-01-02T08:12:35.523Z,1018.90
2019-01-02T08:13:35.547Z,1018.89
2019-01-02T08:14:35.503Z,1018.90
2019-01-02T08:15:35.752Z,1018.84
2019-01-02T08:16:35.479Z,1018.84
2019-01-02T08:17:35.931Z,1018.86
2019-01-02T08:18:35.457Z,1018.87
2019-01-02T08:19:35.502Z,1018.90
2019-01-02T08:20:35.596Z,1018.92
2019-01-02T08:21:35.427Z,1018.95
2019-01-02T08:22:35.417Z,1018.97
2019-01-02T08:23:35.464Z,1018.91
2019-01-02T08:24:35.898Z,1018.91
2019-01-02T08:25:35.494Z,1018.94
2019-01-02T08:26:35.386Z,1018.94
2019-01-02T08:27:35.482Z,1019.00
2019-01-02T08:28:35.505Z,1018.97
2019-01-02T08:29:35.459Z,1018.98
2019-01-02T08:30:35.790Z,1019.03
2019-01-02T08:31:35.636Z,1019.07
2019-01-02T08:32:35.369Z,1019.04
2019-01-02T08:33:35.355Z,1019.10
2019-01-02T08:34:35.472Z,1019.11
2019-01-02T08:35:35.406Z,1019.14
2019-01-02T08:36:35.274Z,1019.12
2019-01-02T08:37:35.676Z,1019.21
2019-01-02T08:38:35.251Z,1019.24
2019-01-02T08:39:35.241Z,1019.22
2019-01-02T08:40:35.231Z,1019.24
2019-01-02T08:41:35.256Z,1019.22
2019-01-02T08:42:35.364Z,1019.24
2019-01-02T08:43:35.419Z,1019.28
2019-01-02T08:44:35.356Z,1019.30
2019-01-02T08:45:35.241Z,1019.35
2019-01-02T08:46:35.175Z,1019.38
2019-01-02T08:47:35.168Z,1019.35
2019-01-02T08:48:35.148Z,1019.46
2019-01-02T08:49:35.302Z,1019.45
2019-01-02T08:50:35.131Z,1019.47
2019-01-02T08:51:35.117Z,1019.50
2019-01-02T08:52:35.105Z,1019.53
2019-01-02T08:53:35.096Z,1019.52
2019-01-02T08:54:35.085Z,1019.58
2019-01-02T08:55:35.313Z,1019.56
2019-01-02T08:56:35.138Z,1019.58
2019-01-02T08:57:35.055Z,1019.54
2019-01-02T08:58:35.045Z,1019.58
2019-01-02T08:59:35.108Z,1019.61
2019-01-02T09:00:35.174Z,1019.59
2019-01-02T09:01:35.888Z,1019.59
2019-01-02T09:02:35.017Z,1019.61
2019-01-02T09:03:35.003Z,1019.61
2019-01-02T09:04:35.912Z,1019.63
2019-01-02T09:05:34.990Z,1019.64
2019-01-02T09:06:35.157Z,1019.63
2019-01-02T09:07:35.403Z,1019.64
2019-01-02T09:08:35.107Z,1019.68
2019-01-02T09:09:34.931Z,1019.66
2019-01-02T09:10:34.923Z,1019.74
2019-01-02T09:11:34.916Z,1019.74
2019-01-02T09:12:34.956Z,1019.76
2019-01-02T09:13:35.405Z,1019.80
2019-01-02T09:14:35.467Z,1019.82
2019-01-02T09:15:34.974Z,1019.82
2019-01-02T09:16:35.016Z,1019.87
2019-01-02T09:17:34.959Z,1019.93
2019-01-02T09:18:35.872Z,1019.94
2019-01-02T09:19:35.438Z,1019.90
2019-01-02T09:20:34.938Z,1019.94
2019-01-02T09:21:35.202Z,1019.97
2019-01-02T09:22:35.201Z,1019.94
2019-01-02T09:23:35.083Z,1019.93
2019-01-02T09:24:35.341Z,1020.01
2019-01-02T09:25:37.382Z,1020.00
2019-01-02T09:26:35.344Z,1020.04
2019-01-02T09:27:35.170Z,1020.04
2019-01-02T09:28:35.200Z,1020.07
2019-01-02T09:29:36.214Z,1020.04
2019-01-02T09:30:34.758Z,1020.17
2019-01-02T09:31:34.802Z,1020.04
2019-01-02T09:32:35.220Z,1020.09
2019-01-02T09:33:34.724Z,1020.16
2019-01-02T09:34:34.767Z,1020.20
2019-01-02T09:35:35.128Z,1020.20
2019-01-02T09:36:34.743Z,1020.27
2019-01-02T09:37:34.894Z,1020.31
2019-01-02T09:38:34.636Z,1020.35
2019-01-02T09:39:34.706Z,1020.31
2019-01-02T09:40:34.744Z,1020.30
2019-01-02T09:41:34.702Z,1020.37
2019-01-02T09:42:35.869Z,1020.36
2019-01-02T09:43:35.089Z,1020.37
2019-01-02T09:44:34.742Z,1020.36
2019-01-02T09:45:34.626Z,1020.28
2019-01-02T09:46:34.629Z,1020.31
2019-01-02T09:47:34.551Z,1020.30
2019-01-02T09:48:34.569Z,1020.35
2019-01-02T09:49:34.649Z,1020.36
2019-01-02T09:50:34.503Z,1020.39
2019-01-02T09:51:34.495Z,1020.34
2019-01-02T09:52:34.484Z,1020.41
2019-01-02T09:53:34.475Z,1020.33
2019-01-02T09:54:34.512Z,1020.38
2019-01-02T09:55:34.830Z,1020.41
2019-01-02T09:56:34.670Z,1020.36
2019-01-02T09:57:34.481Z,1020.34
2019-01-02T09:58:34.455Z,1020.37
2019-01-02T09:59:34.414Z,1020.37
2019-01-02T10:00:34.408Z,1020.39
2019-01-02T10:01:34.541Z,1020.42
2019-01-02T10:02:34.408Z,1020.44
2019-01-02T10:03:34.554Z,1020.41
2019-01-02T10:04:34.949Z,1020.41
2019-01-02T10:05:34.397Z,1020.42
2019-01-02T10:06:34.476Z,1020.42
2019-01-02T10:07:34.984Z,1020.45
2019-01-02T10:08:34.524Z,1020.42
2019-01-02T10:09:34.394Z,1020.50
2019-01-02T10:10:34.328Z,1020.47
2019-01-02T10:11:34.514Z,1020.48
2019-01-02T10:12:34.287Z,1020.51
2019-01-02T10:13:34.449Z,1020.53
2019-01-02T10:14:34.259Z,1020.56
2019-01-02T10:15:34.245Z,1020.55
2019-01-02T10:16:34.242Z,1020.62
2019-01-02T10:17:34.273Z,1020.63
2019-01-02T10:18:34.284Z,1020.53
2019-01-02T10:19:34.946Z,1020.53
2019-01-02T10:20:34.374Z,1020.54
2019-01-02T10:21:34.335Z,1020.62
2019-01-02T10:22:34.177Z,1020.67
2019-01-02T10:23:34.161Z,1020.63
2019-01-02T10:24:34.148Z,1020.64
2019-01-02T10:25:34.484Z,1020.64
2019-01-02T10:26:35.372Z,1020.64
2019-01-02T10:27:34.195Z,1020.70
2019-01-02T10:28:34.214Z,1020.68
2019-01-02T10:29:35.146Z,1020.62
2019-01-02T10:30:34.086Z,1020.64
2019-01-02T10:31:34.265Z,1020.75
2019-01-02T10:32:34.078Z,1020.68
2019-01-02T10:33:34.363Z,1020.60
2019-01-02T10:34:34.043Z,1020.70
2019-01-02T10:35:34.162Z,1020.70
2019-01-02T10:36:34.028Z,1020.72
2019-01-02T10:37:35.261Z,1020.74
2019-01-02T10:38:34.154Z,1020.73
2019-01-02T10:39:34.096Z,1020.76
2019-01-02T10:40:34.468Z,1020.75
2019-01-02T10:41:33.997Z,1020.70
2019-01-02T10:42:34.180Z,1020.74
2019-01-02T10:43:34.499Z,1020.65
2019-01-02T10:44:34.075Z,1020.72
2019-01-02T10:45:34.045Z,1020.72
2019-01-02T10:46:33.927Z,1020.79
2019-01-02T10:47:34.055Z,1020.77
2019-01-02T10:48:34.174Z,1020.73
2019-01-02T10:49:37.090Z,1020.76
2019-01-02T10:50:33.923Z,1020.80
2019-01-02T10:51:33.961Z,1020.83
2019-01-02T10:52:33.873Z,1020.77
2019-01-02T10:53:34.317Z,1020.76
2019-01-02T10:54:33.883Z,1020.86
2019-01-02T10:55:34.043Z,1020.85
2019-01-02T10:56:33.994Z,1020.90
2019-01-02T10:57:34.857Z,1020.86
2019-01-02T10:58:36.602Z,1020.83
2019-01-02T10:59:34.652Z,1020.85
2019-01-02T11:00:34.144Z,1020.76
2019-01-02T11:01:35.099Z,1020.79
2019-01-02T11:02:33.949Z,1020.84
2019-01-02T11:03:34.857Z,1020.75
2019-01-02T11:04:33.844Z,1020.87
2019-01-02T11:05:33.967Z,1020.85
2019-01-02T11:06:34.123Z,1020.87
2019-01-02T11:07:34.442Z,1020.86
2019-01-02T11:08:33.752Z,1020.87
2019-01-02T11:09:34.104Z,1020.85
2019-01-02T11:10:33.828Z,1020.92
2019-01-02T11:11:33.754Z,1020.92
2019-01-02T11:12:33.661Z,1020.89
2019-01-02T11:13:34.379Z,1020.91
2019-01-02T11:14:35.360Z,1020.88
2019-01-02T11:15:33.619Z,1020.88
2019-01-02T11:16:33.784Z,1020.85
2019-01-02T11:17:33.756Z,1020.91
2019-01-02T11:18:34.623Z,1020.85
2019-01-02T11:19:34.407Z,1020.88
2019-01-02T11:20:34.932Z,1020.87
2019-01-02T11:21:34.141Z,1020.87
2019-01-02T11:22:34.709Z,1020.86
2019-01-02T11:23:33.582Z,1020.84
2019-01-02T11:24:34.354Z,1020.83
2019-01-02T11:25:33.977Z,1020.85
2019-01-02T11:26:33.577Z,1020.84
2019-01-02T11:27:34.657Z,1020.91
2019-01-02T11:28:33.994Z,1020.88
2019-01-02T11:29:33.474Z,1020.83
2019-01-02T11:30:33.458Z,1020.94
2019-01-02T11:31:33.842Z,1020.91
2019-01-02T11:32:33.489Z,1020.86
2019-01-02T11:33:33.751Z,1020.92
2019-01-02T11:34:33.607Z,1020.89
2019-01-02T11:35:34.879Z,1020.92
2019-01-02T11:36:33.526Z,1020.99
2019-01-02T11:37:33.771Z,1020.87
2019-01-02T11:38:33.429Z,1020.88
2019-01-02T11:39:33.369Z,1020.85
2019-01-02T11:40:33.477Z,1020.90
2019-01-02T11:41:33.484Z,1020.92
2019-01-02T11:42:33.729Z,1020.86
2019-01-02T11:43:33.938Z,1020.93
2019-01-02T11:44:33.388Z,1021.18
2019-01-02T11:45:33.538Z,1021.31
2019-01-02T11:46:33.766Z,1021.36
2019-01-02T11:47:33.417Z,1021.22
2019-01-02T11:48:33.317Z,1021.27
2019-01-02T11:49:34.222Z,1021.15
2019-01-02T11:50:33.413Z,1021.16
2019-01-02T11:51:33.498Z,1021.21
2019-01-02T11:52:33.500Z,1021.22
2019-01-02T11:53:33.276Z,1021.20
2019-01-02T11:54:33.596Z,1021.21
2019-01-02T11:55:33.328Z,1021.21
2019-01-02T11:56:33.816Z,1021.24
2019-01-02T11:57:33.350Z,1021.19
2019-01-02T11:58:33.350Z,1021.20
2019-01-02T11:59:33.573Z,1021.21
2019-01-02T12:00:33.423Z,1021.24
2019-01-02T12:01:33.486Z,1021.17
2019-01-02T12:02:34.271Z,1021.17
2019-01-02T12:03:33.645Z,1021.23
2019-01-02T12:04:33.198Z,1021.27
2019-01-02T12:05:33.193Z,1021.20
2019-01-02T12:06:33.240Z,1021.21